AirNav  
 
 1541 users online  

KPYN Piedmont Municipal Airport
Piedmont, Missouri, USA

GOING TO PIEDMONT?


FAA INFORMATION EFFECTIVE 25 FEBRUARY 2021

Location

FAA Identifier: PYN
Lat/Long: 37-07-34.0950N 090-42-48.7030W
37-07.568250N 090-42.811717W
37.1261375,-90.7135286
(estimated)
Elevation: 466.4 ft. / 142.2 m (surveyed)
Variation: 02E (1985)
From city: 2 miles SW of PIEDMONT, MO
Time zone: UTC -6 (UTC -5 during Daylight Saving Time)
Zip code: 63957

Airport Operations

Airport use: Open to the public
Activation date: 10/1975
Control tower: no
ARTCC: MEMPHIS CENTER
FSS: SAINT LOUIS FLIGHT SERVICE STATION
NOTAMs facility: STL (NOTAM-D service available)
Attendance: UNATNDD
Wind indicator: lighted
Segmented circle: no
Lights: MIRL RY 03/21 PRESET ON MED INTST & REIL RYS 03 & 21 OPER DUSK-0200; TO INCR INTST MIRL RY 03/21 ACTVT - CTAF. AFT 0200 ACTVT MIRL RY 03/21 & REIL RYS 03 & 21 - CTAF.
Beacon: white-green (lighted land airport)
ROTG BCN OTS INDEFLY. DUSK-DAWN. ROTG BCN OTS INDEFLY.

Airport Communications

CTAF/UNICOM: 122.8
WX AWOS-3PT: 118.475 (573-223-2796)
  • NOT MONITORED.

Airport Services

Fuel available: 100LL
Parking: tiedowns
Bottled oxygen: NONE
Bulk oxygen: NONE

Runway Information

Runway 3/21

Dimensions: 3296 x 60 ft. / 1005 x 18 m
Surface: asphalt, in good condition
Weight bearing capacity: 
Single wheel: 12.5
Runway edge lights: medium intensity
MIRL RWY 03/21 OTS INDEFLY.
Operational restrictions: CLSD SS TO SR.
RUNWAY 3  RUNWAY 21
Latitude: 37-07.338525N37-07.797975N
Longitude: 090-42.992615W090-42.630815W
Elevation: 457.2 ft.466.4 ft.
Traffic pattern: rightleft
Markings: nonprecision, in fair conditionnonprecision, in fair condition
Runway end identifier lights: yesyes
Touchdown point: yes, no lightsyes, no lights
Obstructions: 98 ft. trees, 1420 ft. from runway, 250 ft. left and right of centerline, 12:1 slope to clear38 ft. trees, 808 ft. from runway, 60 ft. left of centerline, 16:1 slope to clear

Airport Ownership and Management from official FAA records

Ownership: Publicly-owned
Owner: CITY OF PIEDMONT
115 W. GREEN STREET, P.O. BOX 25
PIEDMONT, MO 63957
Phone 573-223-7660
Manager: BILL MCMURRY
115 W GREEN ST BOX 25
PIEDMONT, MO 63957
Phone 573-223-4528

Airport Operational Statistics

Aircraft based on the field: 5
Single engine airplanes: 5
    
Aircraft operations: avg 26/week *
58% transient general aviation
36% local general aviation
4% air taxi
1% military
* for 12-month period ending 31 December 2017

Additional Remarks

LAST 35 FT OF TURNAROUND AT SE TWY NOT USBL; PILOTS OF LOW WING ACFT USE CARE.
BIRDS & WILDLIFE ON & INVOF ARPT.
FOR CD CTC MEMPHIS ARTCC AT 901-368-8453.

Instrument Procedures

There are no published instrument procedures at KPYN.

Some nearby airports with instrument procedures:

KPOF - Poplar Bluff Regional Business Airport (28 nm SE)
H88 - A Paul Vance Fredericktown Regional Airport (35 nm NE)
KFAM - Farmington Regional Airport (40 nm N)
KDXE - Dexter Municipal Airport (43 nm SE)
4M9 - Corning Municipal Airport (43 nm S)
 
Loc | Ops | Rwys | IFR | FBO | Links
Com | Nav | Svcs | Stats | Notes
Area around KPYN (Piedmont Municipal Airport)
 
Road maps at: MapQuest Bing Google
 
Aerial photo
WARNING: Photo may not be current or correct
Aerial photo of KPYN (Piedmont Municipal Airport)
Do you have a better or more recent aerial photo of Piedmont Municipal Airport that you would like to share? If so, please send us your photo.

 
Sectional chart

 
Airport distance calculator
Flying to Piedmont Municipal Airport? Find the distance to fly.

From to KPYN

Sunrise and sunset
Times for 03-Mar-2021
 Local
(UTC-6)
 Zulu
(UTC)
Morning civil twilight06:0612:06
Sunrise06:3212:32
Sunset17:5823:58
Evening civil twilight18:2400:24

Current date and time
Zulu (UTC)  03-Mar-2021 16:12:56
Local (UTC-6)  03-Mar-2021 10:12:56
 
METAR
KPOF 
29nm SE 
031553Z AUTO 20005KT 10SM CLR 08/02 A3015 RMK AO2 SLP212 T00830022
KFAM 
41nm N 
031556Z AUTO VRB05KT 10SM CLR 14/M02 A3009 RMK AO2 SLP201 T01441017
K4M9 
43nm S 
031555Z AUTO 22008KT 10SM CLR 10/04 A3017 RMK AO2 PWINO
KMAW 
47nm SE 
031555Z AUTO 24007KT 10SM CLR 11/02 A3017 RMK AO2
TAF
NOTAMs
Click for the latest NOTAMs
NOTAMs are issued by the DoD/FAA and will open in a separate window not controlled by AirNav.

 

 
 

FBO, Fuel Providers, and Aircraft Ground Support

  
 Business Name 
 
 Contact 
 
 Services / Description 
 
Fuel Prices
 
Comments
  
City of Piedmont (self-serve fuel) 573-223-4528
no information available

If you are affiliated with City of Piedmont (self-serve fuel) and would like to show here your services, contact info, web link, logo, and more, click here
100LL
SS $4.60 
 Updated 03-Mar-2021
 
   write
SS=Self service
Update Fuel Prices
 

Would you like to see your business listed on this page?

 If your business provides an interesting product or service to pilots, flight crews, aircraft, or users of the Piedmont Municipal Airport, you should consider listing it here.  To start the listing process, click on the button below
 
Add a business
 

Other Pages about Piedmont Municipal Airport

Update a link
 
Copyright © AirNav, LLC. All rights reserved. Privacy Policy  Contact